Time;durP1;ratioP1;P1;durP2;ratioP2;P2;SDS_P1;SDS_P2;PMS_P1;PMS_P2;Temp;Humidity;BMP_temperature;BMP_pressure;BME280_temperature;BME280_humidity;BME280_pressure;Samples;Min_cycle;Max_cycle;Signal;HPM_P1;HPM_P2
2023/03/15 00:01:36;;;;;;;2.80;0.90;;;9.90;83.20;;;;;;4957448;28;20037;-78
2023/03/15 00:04:04;;;;;;;3.67;1.17;;;10.00;83.30;;;;;;4974455;28;20490;-79
2023/03/15 00:06:32;;;;;;;2.80;1.00;;;10.00;83.30;;;;;;4956968;28;20515;-79
2023/03/15 00:08:58;;;;;;;3.50;1.20;;;10.00;83.30;;;;;;4956828;28;20037;-78
2023/03/15 00:11:24;;;;;;;3.25;1.05;;;10.00;83.30;;;;;;4956729;28;20103;-79
2023/03/15 00:13:50;;;;;;;2.08;0.80;;;10.00;83.30;;;;;;4956540;28;20104;-80
2023/03/15 00:16:17;;;;;;;3.38;1.02;;;10.00;83.30;;;;;;4956751;28;20030;-80
2023/03/15 00:18:44;;;;;;;3.05;0.90;;;10.00;83.30;;;;;;4956597;28;20397;-81
2023/03/15 00:21:09;;;;;;;2.47;0.85;;;10.00;83.30;;;;;;4956365;28;20551;-79
2023/03/15 00:23:35;;;;;;;3.45;0.90;;;10.00;83.30;;;;;;4955822;28;20027;-79
2023/03/15 00:26:00;;;;;;;3.42;1.00;;;10.00;83.30;;;;;;4974150;28;20029;-78
2023/03/15 00:28:26;;;;;;;1.52;0.63;;;10.00;83.30;;;;;;4956803;28;20027;-80
2023/03/15 00:31:06;;;;;;;2.97;0.90;;;10.00;83.30;;;;;;4956531;28;20484;-78
2023/03/15 00:33:33;;;;;;;2.60;0.90;;;10.00;83.30;;;;;;4956814;28;20113;-79
2023/03/15 00:36:03;;;;;;;3.63;0.88;;;9.90;83.20;;;;;;4956961;28;20113;-79
2023/03/15 00:38:29;;;;;;;3.30;1.00;;;9.90;83.20;;;;;;4974149;28;20023;-78
2023/03/15 00:40:54;;;;;;;2.40;0.90;;;10.00;83.30;;;;;;4956686;28;20031;-78
2023/03/15 00:43:20;;;;;;;1.80;0.75;;;10.00;83.30;;;;;;4956768;28;20055;-78
2023/03/15 00:45:45;;;;;;;1.88;0.73;;;10.00;83.40;;;;;;4956511;28;20505;-80
2023/03/15 00:48:11;;;;;;;2.33;0.90;;;10.00;83.30;;;;;;4956695;28;20110;-78
2023/03/15 00:50:36;;;;;;;2.70;0.90;;;10.00;83.30;;;;;;4956630;28;20025;-78
2023/03/15 00:53:02;;;;;;;2.55;0.88;;;10.00;83.30;;;;;;4973927;28;20512;-79
2023/03/15 00:55:27;;;;;;;3.10;0.90;;;10.00;83.30;;;;;;4956359;28;20034;-79
2023/03/15 00:57:53;;;;;;;2.45;0.80;;;10.00;83.30;;;;;;4956518;28;20446;-79
2023/03/15 01:00:23;;;;;;;2.10;0.90;;;10.00;83.30;;;;;;4973843;28;20548;-79
2023/03/15 01:02:49;;;;;;;2.38;0.90;;;10.00;83.30;;;;;;4956310;28;20034;-79
2023/03/15 01:05:15;;;;;;;2.42;0.90;;;10.00;83.30;;;;;;4973441;28;20032;-79
2023/03/15 01:07:41;;;;;;;3.40;0.88;;;10.00;83.40;;;;;;4973534;28;20486;-80
2023/03/15 01:10:07;;;;;;;2.20;0.77;;;10.00;83.30;;;;;;4956142;28;20029;-79
2023/03/15 01:12:33;;;;;;;2.45;0.80;;;9.90;83.40;;;;;;4955740;28;20030;-80
2023/03/15 01:15:01;;;;;;;1.95;0.73;;;10.00;83.40;;;;;;4956076;28;20074;-79
2023/03/15 01:17:26;;;;;;;3.05;0.80;;;10.00;83.40;;;;;;4973513;28;20106;-79
2023/03/15 01:19:52;;;;;;;2.83;0.82;;;10.00;83.50;;;;;;4956187;28;20568;-80
2023/03/15 01:22:18;;;;;;;3.22;0.90;;;10.00;83.50;;;;;;4956327;28;20027;-79
2023/03/15 01:24:43;;;;;;;2.78;0.75;;;10.00;83.50;;;;;;4956025;28;20029;-79
2023/03/15 01:27:09;;;;;;;3.35;0.90;;;10.00;83.50;;;;;;4956586;28;20393;-79
2023/03/15 01:29:34;;;;;;;2.80;1.20;;;10.00;83.40;;;;;;4956888;28;20027;-79
2023/03/15 01:32:00;;;;;;;1.48;0.80;;;10.00;83.50;;;;;;4956623;28;20055;-80
2023/03/15 01:34:26;;;;;;;1.52;0.70;;;10.00;83.50;;;;;;4957064;28;20023;-79
2023/03/15 01:36:52;;;;;;;2.17;0.80;;;10.00;83.50;;;;;;4977217;28;20030;-79
2023/03/15 01:39:18;;;;;;;3.40;0.85;;;10.00;83.50;;;;;;4959711;28;20077;-78
2023/03/15 01:41:43;;;;;;;2.35;0.80;;;10.00;83.40;;;;;;4959413;28;20022;-78
2023/03/15 01:44:17;;;;;;;2.90;1.00;;;10.00;83.40;;;;;;4959470;28;20497;-79
2023/03/15 01:46:42;;;;;;;3.42;0.90;;;10.00;83.40;;;;;;4976828;28;20062;-78
2023/03/15 01:49:08;;;;;;;2.08;0.82;;;10.00;83.40;;;;;;4976722;28;20065;-78
2023/03/15 01:51:40;;;;;;;2.67;1.05;;;10.00;83.50;;;;;;4959529;28;20119;-80
2023/03/15 01:54:38;;;;;;;2.20;0.75;;;10.00;83.40;;;;;;4959423;28;20114;-79
2023/03/15 01:57:23;;;;;;;1.92;0.68;;;10.00;83.50;;;;;;4976876;28;20062;-79
2023/03/15 01:59:58;;;;;;;2.35;0.80;;;10.00;83.40;;;;;;4959550;28;20022;-78
2023/03/15 02:02:24;;;;;;;2.40;0.95;;;10.00;83.40;;;;;;4958942;28;20093;-80
2023/03/15 02:05:08;;;;;;;3.08;0.90;;;10.00;83.50;;;;;;4959583;28;20772;-78
2023/03/15 02:07:36;;;;;;;3.33;0.80;;;10.00;83.50;;;;;;4959433;28;20121;-80
2023/03/15 02:10:04;;;;;;;1.55;0.70;;;10.00;83.50;;;;;;4959322;28;20044;-79
2023/03/15 02:12:32;;;;;;;3.17;0.82;;;10.00;83.50;;;;;;4959311;28;20037;-79
2023/03/15 02:15:01;;;;;;;1.45;0.70;;;10.00;83.60;;;;;;4958968;28;20026;-79
2023/03/15 02:17:40;;;;;;;3.63;0.80;;;10.00;83.50;;;;;;4976038;28;20564;-81
2023/03/15 02:20:29;;;;;;;2.78;0.90;;;10.00;83.50;;;;;;4976623;28;20031;-79
2023/03/15 02:23:02;;;;;;;3.07;0.90;;;10.00;83.60;;;;;;4976385;28;20026;-80
2023/03/15 02:25:56;;;;;;;2.55;0.90;;;10.00;83.60;;;;;;4959205;28;20349;-79
2023/03/15 02:28:22;;;;;;;2.03;0.70;;;10.00;83.50;;;;;;4959157;28;20494;-79
2023/03/15 02:30:48;;;;;;;3.28;0.90;;;10.00;83.60;;;;;;4974439;28;20121;-78
2023/03/15 02:33:25;;;;;;;1.73;0.90;;;10.00;83.60;;;;;;4975763;28;20058;-79
2023/03/15 02:35:51;;;;;;;2.17;0.75;;;10.00;83.50;;;;;;4975695;28;20118;-79
2023/03/15 02:38:17;;;;;;;2.30;0.75;;;10.00;83.70;;;;;;4958190;28;20560;-80
2023/03/15 02:40:44;;;;;;;1.73;0.85;;;10.00;83.60;;;;;;4975472;28;20061;-81
2023/03/15 02:43:16;;;;;;;2.83;0.80;;;10.00;83.60;;;;;;4975499;28;20126;-79
2023/03/15 02:45:42;;;;;;;;;;;10.00;83.80;;;;;;4957943;28;20030;-79
2023/03/15 02:48:10;;;;;;;2.88;1.00;;;10.00;83.70;;;;;;4975456;28;20303;-80
2023/03/15 02:50:36;;;;;;;2.25;0.85;;;9.90;83.60;;;;;;4957848;28;20026;-78
2023/03/15 02:53:04;;;;;;;3.30;0.90;;;9.90;83.60;;;;;;4958031;28;20023;-78
2023/03/15 02:55:33;;;;;;;1.98;0.82;;;10.00;83.70;;;;;;5028966;23;20049;-83
2023/03/15 02:57:59;;;;;;;1.38;0.90;;;10.00;83.70;;;;;;4982012;28;20467;-82
2023/03/15 03:00:25;;;;;;;1.45;0.70;;;10.00;83.70;;;;;;4980223;28;20498;-82
2023/03/15 03:02:51;;;;;;;2.95;1.08;;;9.90;83.70;;;;;;4961620;28;20033;-83
2023/03/15 03:05:17;;;;;;;2.72;0.90;;;10.00;83.70;;;;;;4958079;29;20030;-82
2023/03/15 03:07:43;;;;;;;2.55;0.80;;;10.00;84.20;;;;;;4960228;29;20482;-82
2023/03/15 03:10:11;;;;;;;2.47;0.80;;;10.00;83.70;;;;;;4941479;29;20020;-84
2023/03/15 03:12:36;;;;;;;2.50;0.70;;;10.00;83.60;;;;;;4961206;29;20031;-83
2023/03/15 03:15:03;;;;;;;2.55;0.80;;;10.00;83.60;;;;;;4969270;29;20038;-83
2023/03/15 03:17:29;;;;;;;2.95;1.02;;;9.90;83.60;;;;;;4966167;29;20027;-82
2023/03/15 03:19:55;;;;;;;1.77;0.93;;;10.00;83.70;;;;;;4948614;29;20061;-83
2023/03/15 03:22:23;;;;;;;3.03;0.85;;;9.90;83.60;;;;;;4965373;29;20031;-82
2023/03/15 03:24:51;;;;;;;2.00;1.00;;;10.00;83.70;;;;;;4959718;29;20023;-82
2023/03/15 03:27:17;;;;;;;1.75;0.90;;;10.00;83.70;;;;;;4943452;29;20039;-82
2023/03/15 03:29:44;;;;;;;2.30;0.90;;;10.00;83.70;;;;;;4961429;29;20031;-83
2023/03/15 03:32:09;;;;;;;2.17;0.90;;;9.90;83.70;;;;;;4956734;29;20031;-82
2023/03/15 03:34:35;;;;;;;1.52;0.93;;;10.00;83.60;;;;;;4952458;29;20122;-82
2023/03/15 03:37:01;;;;;;;2.33;0.90;;;10.00;83.60;;;;;;4924946;29;20110;-82
2023/03/15 03:39:27;;;;;;;1.95;0.80;;;9.90;83.60;;;;;;4921235;29;20514;-82
2023/03/15 03:41:52;;;;;;;3.53;0.90;;;10.00;83.60;;;;;;4938312;29;20114;-82
2023/03/15 03:44:18;;;;;;;2.10;0.80;;;9.90;83.60;;;;;;4938539;29;20032;-82
2023/03/15 03:46:43;;;;;;;3.10;1.17;;;9.90;83.60;;;;;;4937584;29;20028;-82
2023/03/15 03:49:09;;;;;;;3.55;1.10;;;9.90;83.50;;;;;;4936351;29;20035;-82
2023/03/15 03:51:35;;;;;;;2.60;1.05;;;9.90;83.50;;;;;;4935876;29;20028;-82
2023/03/15 03:54:01;;;;;;;3.53;1.30;;;9.90;83.60;;;;;;4920182;29;20126;-82
2023/03/15 03:56:26;;;;;;;2.15;0.98;;;10.00;83.60;;;;;;4920070;29;20039;-82
2023/03/15 03:58:52;;;;;;;2.70;1.02;;;9.90;83.50;;;;;;4919763;29;20494;-82
2023/03/15 04:01:18;;;;;;;2.30;1.10;;;10.00;83.60;;;;;;4938220;29;20107;-82
2023/03/15 04:03:43;;;;;;;1.65;0.88;;;9.90;83.50;;;;;;4921451;29;20028;-82
2023/03/15 04:06:09;;;;;;;3.08;0.95;;;9.90;83.50;;;;;;4921512;29;20069;-82
2023/03/15 04:08:34;;;;;;;2.20;0.95;;;9.90;83.50;;;;;;4920752;29;20032;-83
2023/03/15 04:11:03;;;;;;;3.35;1.10;;;9.90;83.50;;;;;;4920114;29;20447;-81
2023/03/15 04:13:30;;;;;;;0.93;0.70;;;9.90;83.50;;;;;;4918183;29;20119;-82
2023/03/15 04:15:56;;;;;;;1.80;1.10;;;10.00;83.50;;;;;;4926424;29;20023;-83
2023/03/15 04:18:22;;;;;;;1.98;1.10;;;9.90;83.50;;;;;;4949739;29;20501;-83
2023/03/15 04:20:48;;;;;;;1.73;0.90;;;10.00;83.50;;;;;;4934413;29;20027;-84
2023/03/15 04:23:15;;;;;;;2.03;0.80;;;10.00;83.50;;;;;;4949985;29;20028;-84
2023/03/15 04:25:41;;;;;;;1.17;0.80;;;9.90;83.50;;;;;;4923127;29;20035;-82
2023/03/15 04:28:09;;;;;;;1.52;1.00;;;9.90;83.60;;;;;;4937823;29;20035;-84
2023/03/15 04:30:35;;;;;;;2.25;1.00;;;9.90;83.50;;;;;;4936565;29;20024;-81
2023/03/15 04:33:02;;;;;;;1.98;1.02;;;10.00;83.60;;;;;;4930084;29;20062;-82
2023/03/15 04:35:38;;;;;;;1.33;0.90;;;9.90;83.60;;;;;;4937198;29;20513;-81
2023/03/15 04:38:04;;;;;;;2.65;1.00;;;9.90;83.50;;;;;;4936636;29;20111;-83
2023/03/15 04:40:33;;;;;;;2.17;1.08;;;9.90;83.50;;;;;;4936761;29;20063;-81
2023/03/15 04:43:00;;;;;;;1.88;1.17;;;9.90;83.40;;;;;;4936581;29;20037;-81
2023/03/15 04:45:26;;;;;;;1.73;0.90;;;9.90;83.50;;;;;;4936716;29;20055;-84
2023/03/15 04:47:52;;;;;;;1.58;0.90;;;9.90;83.50;;;;;;4937021;29;20091;-80
2023/03/15 04:50:19;;;;;;;1.63;1.00;;;9.90;83.50;;;;;;4938211;29;20063;-84
2023/03/15 04:52:45;;;;;;;2.05;1.00;;;9.90;83.50;;;;;;4937464;29;20039;-81
2023/03/15 04:55:11;;;;;;;2.20;1.10;;;10.00;83.50;;;;;;4902643;29;1013138;-82
2023/03/15 04:57:36;;;;;;;2.15;1.00;;;9.90;83.40;;;;;;4937000;29;20537;-80
2023/03/15 05:00:06;;;;;;;2.17;1.10;;;9.90;83.50;;;;;;4954335;29;20398;-79
2023/03/15 05:02:32;;;;;;;2.15;1.00;;;9.90;83.50;;;;;;4936074;29;20031;-80
2023/03/15 05:04:58;;;;;;;1.85;1.10;;;9.90;83.50;;;;;;4937711;29;20038;-82
2023/03/15 05:07:23;;;;;;;2.80;1.20;;;9.90;83.50;;;;;;4942354;29;20039;-81
2023/03/15 05:09:49;;;;;;;3.00;1.20;;;9.90;84.10;;;;;;4955412;28;20049;-81
2023/03/15 05:12:14;;;;;;;1.20;0.98;;;9.90;83.50;;;;;;4942461;29;20027;-81
2023/03/15 05:14:40;;;;;;;1.95;1.10;;;9.90;83.50;;;;;;4942351;29;20031;-82
2023/03/15 05:17:05;;;;;;;2.88;1.17;;;10.00;83.60;;;;;;4959111;28;20371;-81
2023/03/15 05:19:34;;;;;;;1.70;1.00;;;9.80;83.50;;;;;;4946758;29;20047;-83
2023/03/15 05:22:01;;;;;;;2.17;1.20;;;9.90;83.50;;;;;;4965958;29;20438;-82
2023/03/15 05:24:26;;;;;;;2.72;1.10;;;9.90;83.50;;;;;;4966011;28;20038;-82
2023/03/15 05:26:53;;;;;;;1.80;1.10;;;9.90;83.60;;;;;;4964114;29;20390;-85
2023/03/15 05:29:22;;;;;;;3.58;1.40;;;9.90;83.50;;;;;;4963045;29;20130;-81
2023/03/15 05:31:48;;;;;;;2.05;1.20;;;9.90;83.50;;;;;;4963698;29;20079;-80
2023/03/15 05:34:14;;;;;;;1.88;1.05;;;9.90;83.50;;;;;;4961946;28;20047;-79
2023/03/15 05:36:40;;;;;;;2.65;1.42;;;9.90;83.50;;;;;;4947411;29;20047;-79
2023/03/15 05:39:07;;;;;;;2.42;1.30;;;9.90;83.50;;;;;;4945352;29;20016;-80
2023/03/15 05:41:33;;;;;;;2.75;1.50;;;9.90;83.50;;;;;;4944474;29;20104;-80
2023/03/15 05:43:58;;;;;;;1.80;1.27;;;9.90;83.50;;;;;;4944608;29;20075;-79
2023/03/15 05:46:24;;;;;;;2.55;1.30;;;9.90;83.60;;;;;;4944943;29;20031;-81
2023/03/15 05:48:49;;;;;;;2.05;1.30;;;9.90;83.60;;;;;;4942812;29;20027;-79
2023/03/15 05:51:15;;;;;;;2.78;1.30;;;9.90;83.60;;;;;;4960964;29;20122;-81
2023/03/15 05:53:41;;;;;;;2.97;1.42;;;9.90;83.60;;;;;;4939677;29;20055;-80
2023/03/15 05:56:07;;;;;;;2.40;1.50;;;9.90;83.60;;;;;;4938674;29;20432;-81
2023/03/15 05:58:33;;;;;;;3.13;1.40;;;9.80;83.50;;;;;;4938750;29;20033;-82
2023/03/15 06:01:00;;;;;;;2.58;1.40;;;9.90;83.50;;;;;;4958453;29;20031;-82
2023/03/15 06:03:26;;;;;;;2.70;1.52;;;9.90;83.50;;;;;;4939950;29;20035;-80
2023/03/15 06:05:52;;;;;;;2.67;1.40;;;9.90;83.50;;;;;;4955301;29;20066;-82
2023/03/15 06:08:17;;;;;;;2.58;1.52;;;9.90;83.50;;;;;;4938188;29;20055;-82
2023/03/15 06:10:42;;;;;;;2.47;1.40;;;9.90;83.50;;;;;;4940669;29;20039;-82
2023/03/15 06:13:08;;;;;;;3.30;1.50;;;9.90;83.40;;;;;;4937181;29;20074;-79
2023/03/15 06:15:33;;;;;;;3.05;1.60;;;9.90;83.40;;;;;;4942260;29;20036;-81
2023/03/15 06:17:59;;;;;;;3.30;1.70;;;9.90;83.30;;;;;;4959174;29;20117;-82
2023/03/15 06:20:25;;;;;;;3.00;1.77;;;9.90;83.00;;;;;;4940309;29;20023;-83
2023/03/15 06:22:51;;;;;;;3.63;1.75;;;9.90;82.80;;;;;;4939191;29;20027;-84
2023/03/15 06:25:17;;;;;;;4.75;1.95;;;9.90;82.50;;;;;;4942016;29;20030;-80
2023/03/15 06:27:42;;;;;;;4.43;2.10;;;9.90;82.40;;;;;;4940769;29;20027;-80
2023/03/15 06:30:08;;;;;;;4.47;1.80;;;9.90;82.40;;;;;;4939926;29;20015;-79
2023/03/15 06:32:34;;;;;;;4.07;1.90;;;9.90;82.50;;;;;;4955803;29;20087;-80
2023/03/15 06:34:59;;;;;;;4.68;2.00;;;9.90;82.70;;;;;;4941746;29;20039;-84
2023/03/15 06:37:25;;;;;;;6.68;1.90;;;9.90;82.90;;;;;;4942111;29;20028;-81
2023/03/15 06:39:51;;;;;;;8.27;2.20;;;9.90;83.00;;;;;;4939711;29;20122;-81
2023/03/15 06:42:17;;;;;;;5.78;2.22;;;10.00;82.80;;;;;;4959334;29;20020;-82
2023/03/15 06:44:42;;;;;;;8.60;2.47;;;10.00;82.30;;;;;;4939281;29;20027;-82
2023/03/15 06:47:09;;;;;;;11.07;2.80;;;10.00;82.00;;;;;;4938477;29;20031;-83
2023/03/15 06:49:35;;;;;;;8.07;2.40;;;10.00;82.40;;;;;;4956240;29;20027;-81
2023/03/15 06:52:01;;;;;;;12.10;2.47;;;10.00;82.00;;;;;;4938796;29;20520;-82
2023/03/15 06:54:26;;;;;;;5.50;2.42;;;10.00;82.10;;;;;;4938216;29;20116;-82
2023/03/15 06:56:52;;;;;;;9.52;2.90;;;10.00;82.20;;;;;;4938862;29;20130;-83
2023/03/15 06:59:17;;;;;;;6.43;2.22;;;10.00;82.30;;;;;;4954500;29;20489;-82
2023/03/15 07:01:43;;;;;;;5.88;2.40;;;9.90;82.30;;;;;;4938737;29;20019;-82
2023/03/15 07:04:08;;;;;;;9.60;2.17;;;10.00;82.50;;;;;;4938977;29;20086;-82
2023/03/15 07:06:34;;;;;;;6.22;2.67;;;10.00;82.50;;;;;;4939021;29;20032;-82
2023/03/15 07:09:00;;;;;;;6.30;2.40;;;10.00;82.60;;;;;;4956538;29;20176;-82
2023/03/15 07:11:26;;;;;;;5.13;2.00;;;10.00;82.70;;;;;;4956000;29;20027;-82
2023/03/15 07:13:51;;;;;;;9.02;2.50;;;10.00;82.60;;;;;;4956061;29;20086;-82
2023/03/15 07:16:17;;;;;;;5.18;2.00;;;10.00;82.70;;;;;;4938509;29;20401;-83
2023/03/15 07:18:42;;;;;;;7.50;2.10;;;10.00;82.70;;;;;;4942685;29;20078;-83
2023/03/15 07:21:08;;;;;;;6.65;2.20;;;10.00;82.70;;;;;;4962954;29;20028;-82
2023/03/15 07:23:33;;;;;;;5.95;1.95;;;10.00;82.80;;;;;;4958258;29;20031;-82
2023/03/15 07:25:59;;;;;;;6.38;1.92;;;10.00;82.80;;;;;;4959761;29;20489;-83
2023/03/15 07:28:26;;;;;;;8.15;2.03;;;10.00;82.80;;;;;;4942232;29;20549;-82
2023/03/15 07:31:03;;;;;;;5.80;2.05;;;10.00;82.80;;;;;;4941019;29;20042;-82
2023/03/15 07:33:31;;;;;;;5.35;2.28;;;10.00;82.80;;;;;;4944334;29;20517;-84
2023/03/15 07:35:57;;;;;;;7.88;2.55;;;10.00;82.80;;;;;;4949978;29;20038;-84
2023/03/15 07:38:25;;;;;;;5.30;1.90;;;10.00;82.80;;;;;;4949759;29;20027;-83
2023/03/15 07:40:51;;;;;;;6.32;2.33;;;10.00;82.80;;;;;;4946788;29;20027;-83
2023/03/15 07:43:17;;;;;;;6.97;2.30;;;10.00;82.90;;;;;;4947747;29;20023;-82
2023/03/15 07:45:43;;;;;;;5.45;2.10;;;10.00;82.90;;;;;;4963622;29;20336;-82
2023/03/15 07:48:08;;;;;;;4.88;2.13;;;10.00;82.80;;;;;;4946189;29;20054;-83
2023/03/15 07:50:34;;;;;;;5.68;2.22;;;10.00;82.80;;;;;;4946719;29;20039;-83
2023/03/15 07:52:59;;;;;;;3.75;1.90;;;10.00;82.90;;;;;;4946165;29;20038;-83
2023/03/15 07:55:25;;;;;;;6.30;1.98;;;10.00;82.90;;;;;;4946787;29;20027;-82
2023/03/15 07:57:51;;;;;;;4.75;2.10;;;10.00;82.90;;;;;;4964151;29;20023;-83
2023/03/15 08:00:17;;;;;;;5.47;2.05;;;10.00;83.00;;;;;;4946141;29;20029;-82
2023/03/15 08:02:43;;;;;;;5.40;2.17;;;10.00;82.90;;;;;;4945404;29;20031;-82
2023/03/15 08:05:09;;;;;;;5.20;2.10;;;10.00;82.90;;;;;;4945815;29;20023;-82
2023/03/15 08:07:35;;;;;;;4.80;2.15;;;10.00;83.00;;;;;;4962698;29;20506;-82
2023/03/15 08:10:01;;;;;;;6.20;1.98;;;10.00;82.90;;;;;;4944974;29;20031;-83
2023/03/15 08:12:27;;;;;;;3.92;2.00;;;10.00;82.90;;;;;;4962229;29;20032;-81
2023/03/15 08:14:52;;;;;;;6.25;1.90;;;10.00;82.90;;;;;;4943695;29;20027;-83
2023/03/15 08:17:18;;;;;;;5.85;2.38;;;10.00;82.90;;;;;;4961354;29;20038;-82
2023/03/15 08:19:44;;;;;;;4.75;2.10;;;10.00;82.90;;;;;;4959808;29;20047;-82
2023/03/15 08:22:10;;;;;;;6.50;2.00;;;10.00;83.00;;;;;;4949136;29;20028;-83
2023/03/15 08:24:35;;;;;;;4.68;1.95;;;10.00;83.00;;;;;;4951035;29;20062;-83
2023/03/15 08:27:01;;;;;;;4.85;2.00;;;10.10;82.90;;;;;;4964632;29;20035;-83
2023/03/15 08:29:27;;;;;;;5.65;2.10;;;10.20;82.70;;;;;;4947440;29;20126;-82
2023/03/15 08:31:53;;;;;;;4.53;2.00;;;10.20;82.50;;;;;;4947124;29;20038;-82
2023/03/15 08:34:20;;;;;;;3.90;1.88;;;10.30;82.30;;;;;;4946614;29;20058;-83
2023/03/15 08:36:46;;;;;;;4.60;2.03;;;10.30;82.00;;;;;;4946372;29;20513;-82
2023/03/15 08:39:12;;;;;;;4.55;2.20;;;10.40;81.90;;;;;;4961527;29;20046;-83
2023/03/15 08:41:38;;;;;;;3.70;1.83;;;10.50;81.60;;;;;;4960397;29;20414;-83
2023/03/15 08:44:03;;;;;;;3.95;2.20;;;10.60;81.30;;;;;;4961127;28;20050;-82
2023/03/15 08:46:29;;;;;;;3.85;1.70;;;10.70;81.00;;;;;;4948201;29;20046;-83
2023/03/15 08:48:55;;;;;;;4.20;1.73;;;10.70;80.80;;;;;;4963375;29;20420;-82
2023/03/15 08:51:20;;;;;;;4.10;1.90;;;10.70;80.70;;;;;;4946455;29;20034;-82
2023/03/15 08:53:46;;;;;;;3.28;1.98;;;10.80;80.60;;;;;;4946620;29;20039;-82
2023/03/15 08:56:12;;;;;;;4.05;1.98;;;10.80;80.50;;;;;;4977271;23;20047;-83
2023/03/15 08:58:37;;;;;;;4.40;2.10;;;10.90;80.30;;;;;;4940546;29;20054;-83
2023/03/15 09:01:03;;;;;;;4.30;2.08;;;10.90;80.20;;;;;;4940066;29;20024;-82
2023/03/15 09:03:31;;;;;;;3.78;1.80;;;10.90;80.10;;;;;;4939485;29;20086;-83
2023/03/15 09:05:57;;;;;;;4.38;2.00;;;10.90;80.20;;;;;;4950852;28;20031;-83
2023/03/15 09:08:24;;;;;;;3.80;1.90;;;10.90;80.10;;;;;;4975321;28;20121;-83
2023/03/15 09:10:56;;;;;;;4.55;1.88;;;11.00;80.00;;;;;;4976424;28;20031;-83
2023/03/15 09:13:23;;;;;;;4.05;2.08;;;11.00;79.80;;;;;;4958937;28;20059;-83
2023/03/15 09:15:50;;;;;;;4.55;1.95;;;11.10;79.80;;;;;;4959266;28;20038;-85
2023/03/15 09:18:15;;;;;;;4.63;1.95;;;11.10;79.60;;;;;;4959186;28;20027;-83
2023/03/15 09:20:41;;;;;;;3.97;1.92;;;11.20;79.40;;;;;;4958828;28;20602;-83
2023/03/15 09:23:06;;;;;;;4.00;1.90;;;11.20;79.30;;;;;;4959092;28;20107;-83
2023/03/15 09:25:32;;;;;;;3.00;1.70;;;11.20;79.50;;;;;;4976152;28;20035;-83
2023/03/15 09:27:57;;;;;;;3.58;2.05;;;11.20;79.50;;;;;;4958897;28;20023;-83
2023/03/15 09:30:23;;;;;;;4.47;1.95;;;11.20;79.40;;;;;;4958743;28;20026;-83
2023/03/15 09:32:50;;;;;;;4.03;1.80;;;11.20;79.50;;;;;;4976425;28;20050;-83
2023/03/15 09:35:18;;;;;;;3.28;1.95;;;11.10;79.60;;;;;;4958510;28;20109;-84
2023/03/15 09:37:44;;;;;;;3.05;1.90;;;11.10;79.80;;;;;;4958798;28;20127;-84
2023/03/15 09:40:17;;;;;;;3.45;1.80;;;11.00;79.80;;;;;;4958583;28;20058;-84
2023/03/15 09:42:55;;;;;;;5.38;2.10;;;11.00;79.90;;;;;;4975853;28;20019;-81
2023/03/15 09:45:51;;;;;;;4.78;2.28;;;11.10;80.00;;;;;;4958675;28;20050;-82
2023/03/15 09:48:31;;;;;;;4.40;1.90;;;11.20;80.00;;;;;;4958725;28;20031;-85
2023/03/15 09:51:08;;;;;;;4.70;1.90;;;11.10;79.60;;;;;;4958556;28;20031;-84
2023/03/15 09:53:45;;;;;;;4.43;1.80;;;11.10;79.70;;;;;;4958459;28;20505;-82
2023/03/15 09:56:24;;;;;;;3.35;1.80;;;11.00;79.80;;;;;;4957888;28;20039;-83
2023/03/15 09:58:53;;;;;;;3.08;1.65;;;11.00;80.00;;;;;;4958443;28;20050;-83
2023/03/15 10:01:27;;;;;;;3.67;2.00;;;11.00;80.10;;;;;;4957787;28;20019;-82
2023/03/15 10:03:54;;;;;;;3.42;1.75;;;11.10;80.00;;;;;;4958364;28;20489;-85
2023/03/15 10:06:26;;;;;;;4.65;2.28;;;11.20;80.20;;;;;;4975562;28;20030;-83
2023/03/15 10:08:59;;;;;;;5.07;2.00;;;11.20;79.80;;;;;;4958357;28;20027;-83
2023/03/15 10:12:00;;;;;;;5.15;1.88;;;11.20;79.80;;;;;;4958211;28;20055;-82
2023/03/15 10:14:38;;;;;;;3.92;1.67;;;11.20;80.10;;;;;;4958240;28;20034;-82
2023/03/15 10:17:11;;;;;;;9.30;2.70;;;11.30;80.30;;;;;;4975470;28;20023;-82
2023/03/15 10:19:49;;;;;;;3.95;1.80;;;11.40;80.00;;;;;;4958354;28;20043;-83
2023/03/15 10:22:40;;;;;;;3.72;1.90;;;11.40;79.70;;;;;;4957805;28;20460;-83
2023/03/15 10:25:17;;;;;;;4.07;1.90;;;11.40;79.70;;;;;;4957946;28;20027;-82
2023/03/15 10:27:48;;;;;;;5.75;1.95;;;11.50;79.80;;;;;;4975227;28;20489;-83
2023/03/15 10:30:16;;;;;;;4.75;1.90;;;11.50;79.50;;;;;;4957810;28;20034;-82
2023/03/15 10:32:47;;;;;;;3.78;1.90;;;11.50;79.50;;;;;;4957821;28;20470;-83
2023/03/15 10:35:15;;;;;;;3.90;1.93;;;11.60;79.30;;;;;;4957731;28;20117;-82
2023/03/15 10:37:41;;;;;;;4.40;2.03;;;11.60;79.30;;;;;;4957686;28;20262;-81
2023/03/15 10:40:14;;;;;;;3.80;1.80;;;11.60;79.30;;;;;;4957541;28;20030;-82
2023/03/15 10:42:41;;;;;;;2.63;1.60;;;11.60;79.30;;;;;;4971967;28;20061;-83
2023/03/15 10:45:19;;;;;;;2.88;1.67;;;11.60;79.30;;;;;;4974665;28;20063;-82
2023/03/15 10:47:46;;;;;;;4.55;1.92;;;11.70;79.40;;;;;;4974913;28;20055;-81
2023/03/15 10:50:31;;;;;;;3.17;1.75;;;11.70;79.50;;;;;;4957090;28;20393;-84
2023/03/15 10:53:00;;;;;;;3.70;1.70;;;11.70;79.40;;;;;;4957482;28;20517;-82
2023/03/15 10:55:31;;;;;;;5.00;2.20;;;11.70;79.50;;;;;;4957350;28;20123;-82
2023/03/15 10:57:58;;;;;;;3.10;1.70;;;11.70;79.30;;;;;;4957367;28;20023;-83
2023/03/15 11:00:35;;;;;;;4.03;1.90;;;11.70;79.40;;;;;;4974182;28;20551;-82
2023/03/15 11:03:24;;;;;;;3.45;1.58;;;11.70;79.20;;;;;;4957130;28;20485;-85
2023/03/15 11:05:55;;;;;;;5.00;1.70;;;11.70;79.30;;;;;;4957381;28;20117;-82
2023/03/15 11:08:24;;;;;;;4.72;1.88;;;11.60;79.20;;;;;;4956516;28;20114;-84
2023/03/15 11:10:58;;;;;;;3.00;1.52;;;11.50;79.40;;;;;;4974149;28;20028;-83
2023/03/15 11:13:26;;;;;;;4.00;1.63;;;11.50;79.50;;;;;;4956864;28;20438;-85
2023/03/15 11:16:00;;;;;;;3.65;1.60;;;11.40;79.70;;;;;;4957142;28;20073;-83
2023/03/15 11:18:30;;;;;;;3.53;1.67;;;11.40;79.60;;;;;;4957058;28;20023;-83
2023/03/15 11:20:56;;;;;;;3.42;1.80;;;11.50;80.00;;;;;;4956802;28;20022;-83
2023/03/15 11:23:30;;;;;;;3.75;1.50;;;11.50;80.00;;;;;;4956766;28;20516;-83
2023/03/15 11:25:56;;;;;;;2.88;1.70;;;11.50;79.70;;;;;;4956802;28;20068;-83
2023/03/15 11:28:29;;;;;;;3.75;1.70;;;11.50;79.70;;;;;;4956769;28;20026;-82
2023/03/15 11:30:59;;;;;;;3.35;1.55;;;11.40;79.60;;;;;;4956461;28;20027;-83
2023/03/15 11:33:51;;;;;;;3.45;1.40;;;11.40;79.60;;;;;;4974097;28;20113;-83
2023/03/15 11:36:20;;;;;;;3.80;1.67;;;11.40;79.60;;;;;;4973793;28;20030;-83
2023/03/15 11:38:46;;;;;;;3.08;1.42;;;11.40;79.40;;;;;;4956886;28;20481;-82
2023/03/15 11:41:31;;;;;;;3.58;1.58;;;11.40;79.80;;;;;;4973821;28;20042;-83
2023/03/15 11:44:24;;;;;;;3.17;1.60;;;11.50;80.00;;;;;;4956615;28;20043;-83
2023/03/15 11:46:57;;;;;;;3.95;1.77;;;11.50;80.00;;;;;;4956714;28;20065;-85
2023/03/15 11:49:39;;;;;;;3.58;1.65;;;11.50;80.10;;;;;;4973824;28;20031;-83
2023/03/15 11:52:05;;;;;;;3.45;1.55;;;11.60;79.70;;;;;;4956240;28;20058;-84
2023/03/15 11:54:31;;;;;;;1.88;1.13;;;11.70;79.40;;;;;;4956243;28;20019;-84
2023/03/15 11:57:01;;;;;;;3.10;1.60;;;11.60;79.00;;;;;;4973429;28;20034;-83
2023/03/15 11:59:31;;;;;;;2.67;1.67;;;11.70;79.30;;;;;;4973542;28;20057;-83
2023/03/15 12:01:58;;;;;;;3.35;1.58;;;11.70;79.10;;;;;;4955778;28;20027;-84
2023/03/15 12:04:27;;;;;;;3.30;1.60;;;11.70;78.50;;;;;;4955909;28;20063;-81
2023/03/15 12:06:54;;;;;;;3.30;1.55;;;11.70;78.60;;;;;;4973476;28;20027;-82
2023/03/15 12:09:38;;;;;;;2.80;1.60;;;11.60;78.60;;;;;;4956031;28;20026;-83
2023/03/15 12:12:35;;;;;;;3.90;1.55;;;11.60;78.70;;;;;;4956000;28;20023;-83
2023/03/15 12:15:04;;;;;;;2.40;1.42;;;11.60;79.00;;;;;;4947658;28;20039;-82
2023/03/15 12:17:29;;;;;;;3.28;1.50;;;11.50;78.80;;;;;;4955994;28;20038;-83
2023/03/15 12:20:13;;;;;;;3.65;1.55;;;11.60;79.00;;;;;;4955943;28;20027;-83
2023/03/15 12:22:51;;;;;;;2.47;1.42;;;11.60;79.00;;;;;;4955960;28;20556;-83
2023/03/15 12:25:36;;;;;;;3.10;1.25;;;11.60;79.00;;;;;;4955804;28;20030;-82
2023/03/15 12:28:08;;;;;;;2.83;1.45;;;11.70;79.20;;;;;;4973450;28;20437;-84
2023/03/15 12:30:41;;;;;;;3.25;1.50;;;11.70;79.00;;;;;;4955629;28;20023;-83
2023/03/15 12:33:16;;;;;;;2.28;1.35;;;11.70;79.00;;;;;;4955822;28;20167;-83
2023/03/15 12:35:42;;;;;;;2.63;1.20;;;11.70;78.70;;;;;;4955932;28;20027;-83
2023/03/15 12:38:18;;;;;;;2.13;1.25;;;11.70;78.80;;;;;;4955774;28;20041;-82
2023/03/15 12:40:53;;;;;;;3.42;1.38;;;11.70;78.60;;;;;;4973429;28;20023;-83
2023/03/15 12:43:36;;;;;;;2.20;1.23;;;11.70;78.60;;;;;;4955781;28;20038;-83
2023/03/15 12:46:02;;;;;;;2.85;1.27;;;11.70;78.70;;;;;;4972821;28;20057;-83
2023/03/15 12:48:28;;;;;;;2.53;1.40;;;11.70;79.00;;;;;;4955708;28;20469;-83
2023/03/15 12:50:56;;;;;;;2.72;1.33;;;11.70;78.70;;;;;;4972840;28;20023;-84
2023/03/15 12:53:38;;;;;;;2.25;1.30;;;11.60;78.70;;;;;;4955558;28;20053;-83
2023/03/15 12:56:20;;;;;;;2.65;1.10;;;11.70;78.40;;;;;;4955659;28;20027;-83
2023/03/15 12:58:52;;;;;;;3.33;1.40;;;11.60;78.10;;;;;;4955797;28;20031;-83